KAPN/APN METAR and TAF weather

Enter ICAO airport designator
Station Type Date Time Source
KAPN METAR 2018/07/16 23:54 UTC NOAA

KAPN 162354Z AUTO 32007KT 10SM CLR 25/17 A2984 RMK AO2 SLP102 60039 T02500167 10322 20206 55003


Station Type Date Time Source
KAPN Decoded METAR 2018/07/16 23:54 UTC NOAA

ALPENA COUNTY REGIONAL AIRPORT, MI, United States (KAPN) 45-05N 083-34W 210M
Jul 16, 2018 - 07:54 PM EDT / 2018.07.16 2354 UTC
Wind: from the NW (320 degrees) at 8 MPH (7 KT):0
Visibility: 10 mile(s):0
Sky conditions: clear
Temperature: 77.0 F (25.0 C)
Dew Point: 62.1 F (16.7 C)
Relative Humidity: 59%
Pressure (altimeter): 29.84 in. Hg (1010 hPa)
Pressure tendency: 0.01 inches (0.3 hPa) lower than three hours ago
ob: KAPN 162354Z AUTO 32007KT 10SM CLR 25/17 A2984 RMK AO2 SLP102 60039 T02500167 10322 20206 55003
cycle: 0

Station Type Date Time Source
KAPN TAF 2018/07/16 18:42 UTC NOAA

TAF KAPN 161741Z 1618/1718 26005KT P6SM VCTS FEW030CB BKN040
TEMPO 1618/1621 5SM -TSRA BKN025CB
FM162200 35007KT P6SM FEW050
FM170500 30007KT P6SM SKC
FM171500 32010KT P6SM SCT035


Example: see airport list